Time;durP1;ratioP1;P1;durP2;ratioP2;P2;SDS_P1;SDS_P2;PMS_P1;PMS_P2;Temp;Humidity;BMP_temperature;BMP_pressure;BME280_temperature;BME280_humidity;BME280_pressure;Samples;Min_cycle;Max_cycle;Signal;HPM_P1;HPM_P2
2021/03/26 21:41:13;;;;;;;69.93;32.43;;;;;;;0.99;83.96;96567.00;5104941;27;20320;-62
2021/03/26 21:43:54;;;;;;;68.10;30.83;;;;;;;0.95;83.91;96565.81;5031533;28;20314;-61
2021/03/26 21:46:29;;;;;;;66.60;30.30;;;;;;;0.90;83.89;96563.09;5044837;28;20284;-60
2021/03/26 21:49:34;;;;;;;69.87;30.57;;;;;;;0.89;83.50;96560.75;5045752;28;20196;-59
2021/03/26 21:52:15;;;;;;;110.67;39.33;;;;;;;0.85;84.58;96562.91;5046181;28;20258;-61
2021/03/26 21:54:49;;;;;;;41.70;24.40;;;;;;;1.05;85.59;96561.03;5046463;28;20197;-62
2021/03/26 21:57:22;;;;;;;43.57;25.17;;;;;;;1.05;86.86;96560.25;5046738;28;20235;-62
2021/03/26 22:00:20;;;;;;;27.97;16.67;;;;;;;1.21;86.42;96557.19;5046409;28;20264;-60
2021/03/26 22:03:17;;;;;;;33.27;15.57;;;;;;;1.17;86.06;96566.28;5040875;28;20190;-61
2021/03/26 22:05:46;;;;;;;28.77;16.60;;;;;;;1.35;85.30;96563.00;5046794;28;20701;-59
2021/03/26 22:08:25;;;;;;;21.90;14.43;;;;;;;1.49;84.04;96567.03;5046602;28;20219;-61
2021/03/26 22:10:59;;;;;;;24.50;15.10;;;;;;;1.45;83.78;96565.88;5046655;28;20280;-59
2021/03/26 22:13:50;;;;;;;26.10;13.53;;;;;;;1.55;84.45;96568.75;5046582;28;20201;-60
2021/03/26 22:16:25;;;;;;;21.80;12.47;;;;;;;1.63;83.48;96569.28;5046502;28;20197;-59
2021/03/26 22:19:11;;;;;;;23.27;13.40;;;;;;;1.61;83.63;96555.88;5046577;28;20280;-60
2021/03/26 22:21:47;;;;;;;21.63;12.20;;;;;;;1.58;83.39;96561.44;5046473;28;20197;-61
2021/03/26 22:24:42;;;;;;;28.30;14.80;;;;;;;1.62;83.35;96567.72;5046448;28;20266;-61
2021/03/26 22:28:05;;;;;;;24.30;14.37;;;;;;;1.53;83.65;96571.53;5020240;28;20218;-60
2021/03/26 22:30:47;;;;;;;21.90;13.77;;;;;;;1.57;83.30;96575.25;4951448;28;20379;-61
2021/03/26 22:33:23;;;;;;;21.93;13.23;;;;;;;1.39;83.60;96582.88;4965500;28;20208;-61
2021/03/26 22:36:02;;;;;;;19.13;12.30;;;;;;;1.43;84.00;96578.91;5012477;28;20203;-61
2021/03/26 22:38:32;;;;;;;23.33;14.43;;;;;;;1.32;84.46;96576.22;5026138;28;20696;-63
2021/03/26 22:41:07;;;;;;;24.63;14.63;;;;;;;1.25;84.32;96582.16;5026402;28;20197;-62
2021/03/26 22:43:34;;;;;;;25.17;15.23;;;;;;;1.24;84.76;96574.72;5026093;28;20323;-61
2021/03/26 22:46:19;;;;;;;59.77;30.17;;;;;;;1.12;85.09;96576.34;5026251;28;20199;-61
2021/03/26 22:48:49;;;;;;;41.03;20.53;;;;;;;1.05;85.51;96575.59;5026198;28;20233;-61
2021/03/26 22:51:46;;;;;;;47.20;21.30;;;;;;;1.11;85.78;96579.91;5018603;28;20195;-62
2021/03/26 22:54:39;;;;;;;44.90;21.90;;;;;;;1.08;85.87;96575.19;5009862;28;20199;-61
2021/03/26 22:57:29;;;;;;;64.53;28.27;;;;;;;1.18;85.35;96586.56;5013469;28;20657;-61
2021/03/26 23:00:12;;;;;;;57.20;27.90;;;;;;;1.11;85.65;96585.00;5012950;28;20230;-62
2021/03/26 23:02:44;;;;;;;61.50;28.47;;;;;;;1.03;85.85;96592.94;5012935;28;20195;-60
2021/03/26 23:05:14;;;;;;;39.30;18.93;;;;;;;0.78;84.74;96586.00;5013131;28;20669;-62
2021/03/26 23:07:43;;;;;;;36.83;17.93;;;;;;;0.69;84.50;96589.78;5013143;28;20201;-62
2021/03/26 23:10:18;;;;;;;49.00;20.50;;;;;;;0.63;84.32;96585.47;5012987;28;20647;-60
2021/03/26 23:12:49;;;;;;;50.33;22.37;;;;;;;0.68;85.21;96582.31;5012925;28;20209;-61
2021/03/26 23:15:21;;;;;;;25.90;14.63;;;;;;;0.60;83.58;96580.75;5013114;28;20297;-61
2021/03/26 23:17:52;;;;;;;29.33;14.50;;;;;;;0.34;82.76;96579.09;5012752;28;20199;-60
2021/03/26 23:20:24;;;;;;;40.00;21.03;;;;;;;0.22;83.25;96575.59;5012956;28;20604;-61
2021/03/26 23:22:59;;;;;;;42.00;21.57;;;;;;;0.53;86.00;96574.91;5012620;28;20206;-61
2021/03/26 23:25:29;;;;;;;34.43;19.07;;;;;;;0.59;87.10;96571.53;5012623;28;20678;-61
2021/03/26 23:28:06;;;;;;;28.27;14.93;;;;;;;0.66;87.27;96574.81;5012730;28;20245;-60
2021/03/26 23:30:42;;;;;;;34.00;14.03;;;;;;;0.72;87.14;96573.22;5012527;28;20205;-61
2021/03/26 23:33:13;;;;;;;22.50;13.77;;;;;;;0.94;85.99;96576.28;5012487;28;20194;-60
2021/03/26 23:35:47;;;;;;;19.73;10.53;;;;;;;0.81;86.11;96572.00;5012611;28;20196;-60
2021/03/26 23:38:19;;;;;;;18.30;10.07;;;;;;;0.80;86.03;96573.78;5012358;28;20692;-62
2021/03/26 23:40:49;;;;;;;15.87;9.53;;;;;;;0.69;86.50;96571.88;5012468;28;20273;-61
2021/03/26 23:43:23;;;;;;;14.73;8.87;;;;;;;0.65;87.18;96569.94;5012902;28;20202;-62
2021/03/26 23:45:53;;;;;;;16.10;9.90;;;;;;;0.63;87.17;96572.69;5012199;28;20205;-61
2021/03/26 23:48:25;;;;;;;17.00;9.97;;;;;;;0.50;87.68;96567.63;5012061;28;20199;-60
2021/03/26 23:50:58;;;;;;;28.63;12.73;;;;;;;0.47;88.52;96578.25;5012089;28;20201;-62
2021/03/26 23:53:34;;;;;;;22.87;11.83;;;;;;;0.42;88.50;96575.53;5012290;28;20378;-59
2021/03/26 23:56:05;;;;;;;20.40;11.10;;;;;;;0.51;87.77;96579.41;5012485;28;20196;-60
2021/03/26 23:58:49;;;;;;;17.83;11.37;;;;;;;0.58;87.33;96574.28;5011855;28;20202;-60
